Time;durP1;ratioP1;P1;durP2;ratioP2;P2;SDS_P1;SDS_P2;PMS_P1;PMS_P2;Temp;Humidity;BMP_temperature;BMP_pressure;BME280_temperature;BME280_humidity;BME280_pressure;Samples;Min_cycle;Max_cycle;Signal;HPM_P1;HPM_P2
2022/08/04 00:02:38;;;;;;;2.53;0.93;;;;;;;24.72;39.36;96576.78;4964611;29;20114;-76
2022/08/04 00:05:10;;;;;;;2.13;0.95;;;;;;;24.74;39.13;96565.84;4957031;28;20565;-76
2022/08/04 00:07:41;;;;;;;0.95;0.93;;;;;;;24.76;39.01;96571.69;4957579;29;20137;-76
2022/08/04 00:10:16;;;;;;;1.52;1.17;;;;;;;24.78;39.71;96569.56;4956945;29;20492;-76
2022/08/04 00:12:51;;;;;;;1.52;1.08;;;;;;;24.80;39.89;96567.41;4957125;29;20090;-77
2022/08/04 00:15:19;;;;;;;1.48;0.90;;;;;;;24.79;39.83;96566.59;4957042;28;20187;-76
2022/08/04 00:17:53;;;;;;;1.20;1.10;;;;;;;24.79;39.65;96571.94;4957179;28;20472;-76
2022/08/04 00:20:21;;;;;;;0.98;0.80;;;;;;;24.79;39.22;96560.47;4956660;29;20138;-76
2022/08/04 00:22:52;;;;;;;5.40;1.05;;;;;;;24.79;40.22;96569.25;4956643;28;20051;-76
2022/08/04 00:25:21;;;;;;;1.13;0.80;;;;;;;24.79;40.48;96566.59;4956064;28;20530;-74
2022/08/04 00:27:49;;;;;;;1.08;0.70;;;;;;;24.79;39.82;96571.13;4956061;29;20082;-74
2022/08/04 00:30:16;;;;;;;2.05;0.68;;;;;;;24.80;39.81;96570.09;4957121;28;20089;-73
2022/08/04 00:32:45;;;;;;;1.40;1.15;;;;;;;24.78;40.39;96569.56;4956456;29;20044;-74
2022/08/04 00:35:14;;;;;;;1.40;0.80;;;;;;;24.77;40.25;96574.06;4956982;28;20118;-74
2022/08/04 00:37:44;;;;;;;0.95;0.77;;;;;;;24.76;39.55;96566.38;4956889;29;20090;-73
2022/08/04 00:40:24;;;;;;;1.25;0.93;;;;;;;24.76;40.39;96569.03;4956938;29;20086;-73
2022/08/04 00:43:10;;;;;;;1.10;1.00;;;;;;;24.75;40.02;96570.91;4956377;28;20528;-73
2022/08/04 00:45:51;;;;;;;;;;;;;;;24.75;39.95;96576.25;4957160;28;20078;-74
2022/08/04 00:48:52;;;;;;;1.23;0.90;;;;;;;24.76;40.46;96569.03;4956568;28;19922;-74
2022/08/04 00:51:29;;;;;;;3.60;1.45;;;;;;;24.74;40.29;96565.84;4954757;29;20133;-74
2022/08/04 00:54:06;;;;;;;1.80;1.00;;;;;;;24.72;40.11;96567.97;4956029;29;20094;-74
2022/08/04 00:57:01;;;;;;;1.60;0.98;;;;;;;24.71;40.69;96569.84;4956518;29;20130;-74
2022/08/04 00:59:44;;;;;;;6.50;1.17;;;;;;;24.66;42.09;96573.34;4956116;29;20055;-74
2022/08/04 01:02:21;;;;;;;1.80;1.17;;;;;;;24.65;42.12;96574.41;4956245;29;20100;-74
2022/08/04 01:04:57;;;;;;;2.28;1.52;;;;;;;24.65;42.12;96568.28;4956357;28;20106;-74
2022/08/04 01:08:00;;;;;;;1.20;0.90;;;;;;;24.63;41.73;96573.88;4956524;29;20543;-74
2022/08/04 01:10:40;;;;;;;4.68;1.73;;;;;;;24.60;42.08;96574.44;4946123;29;20051;-74
2022/08/04 01:13:26;;;;;;;5.20;1.20;;;;;;;24.59;41.51;96567.47;4955997;29;20057;-74
2022/08/04 01:16:04;;;;;;;0.98;0.98;;;;;;;24.58;42.12;96568.56;4955690;28;20138;-74
2022/08/04 01:18:38;;;;;;;1.35;1.15;;;;;;;24.56;41.48;96578.69;4956048;29;20075;-73
2022/08/04 01:21:21;;;;;;;3.58;1.10;;;;;;;24.57;42.45;96580.28;4955866;29;20079;-73
2022/08/04 01:24:18;;;;;;;1.15;1.10;;;;;;;24.54;42.04;96580.03;4956167;29;20516;-74
2022/08/04 01:26:55;;;;;;;1.30;1.23;;;;;;;24.51;42.17;96575.25;4948566;29;20055;-73
2022/08/04 01:29:30;;;;;;;6.20;1.30;;;;;;;24.47;42.49;96572.31;4936740;29;20055;-74
2022/08/04 01:32:19;;;;;;;1.88;1.30;;;;;;;24.43;42.36;96579.25;4941103;29;20090;-73
2022/08/04 01:34:59;;;;;;;3.33;0.90;;;;;;;24.38;42.50;96577.41;4945255;29;20039;-74
2022/08/04 01:37:45;;;;;;;2.83;1.70;;;;;;;24.33;42.30;96580.06;4947162;29;20450;-75
2022/08/04 01:40:14;;;;;;;1.75;1.33;;;;;;;24.29;43.47;96575.53;4954228;29;20082;-75
2022/08/04 01:42:44;;;;;;;1.13;1.05;;;;;;;24.25;43.11;96573.41;4941035;29;20055;-75
2022/08/04 01:45:13;;;;;;;3.00;1.27;;;;;;;24.23;43.49;96575.56;4977182;23;20049;-78
2022/08/04 01:47:48;;;;;;;2.22;1.15;;;;;;;24.21;42.78;96572.38;4975154;28;20099;-77
2022/08/04 01:50:16;;;;;;;2.83;1.50;;;;;;;24.16;42.66;96577.72;4976096;28;20078;-78
2022/08/04 01:52:45;;;;;;;2.45;1.00;;;;;;;24.11;43.48;96572.38;4975834;28;20528;-77
2022/08/04 01:55:18;;;;;;;5.05;1.20;;;;;;;24.09;43.35;96573.72;4975308;28;20051;-77
2022/08/04 01:57:47;;;;;;;2.75;1.42;;;;;;;24.02;43.11;96571.31;4977275;28;20446;-78
2022/08/04 02:00:18;;;;;;;2.85;1.30;;;;;;;23.94;43.15;96570.00;4979294;28;20109;-77
2022/08/04 02:02:47;;;;;;;2.17;1.40;;;;;;;23.92;43.02;96574.00;4977768;28;20090;-77
2022/08/04 02:05:17;;;;;;;2.13;1.15;;;;;;;23.87;43.34;96566.00;4978369;28;20109;-77
2022/08/04 02:07:56;;;;;;;1.73;1.27;;;;;;;23.83;43.33;96566.56;4978601;28;20101;-77
2022/08/04 02:10:28;;;;;;;1.30;1.10;;;;;;;23.78;43.80;96558.53;4978438;28;20059;-78
2022/08/04 02:13:07;;;;;;;3.58;1.35;;;;;;;23.75;43.71;96564.41;4977445;28;20131;-78
2022/08/04 02:15:44;;;;;;;1.50;1.20;;;;;;;23.68;43.58;96558.53;4975379;28;20078;-77
2022/08/04 02:18:19;;;;;;;3.15;1.17;;;;;;;23.66;43.66;96550.03;4976467;28;20086;-77
2022/08/04 02:20:55;;;;;;;3.95;1.65;;;;;;;23.62;43.76;96549.75;4977074;28;20081;-77
2022/08/04 02:23:30;;;;;;;2.05;1.35;;;;;;;23.56;44.06;96550.00;4977989;28;20072;-77
2022/08/04 02:26:00;;;;;;;2.05;1.30;;;;;;;23.55;44.01;96543.06;4978582;28;20065;-77
2022/08/04 02:28:34;;;;;;;1.55;1.35;;;;;;;23.52;44.33;96546.28;4978957;28;20074;-77
2022/08/04 02:31:18;;;;;;;1.60;1.50;;;;;;;23.48;44.11;96553.19;4978390;28;20055;-77
2022/08/04 02:33:52;;;;;;;1.27;1.10;;;;;;;23.44;44.07;96543.09;4978294;28;20049;-77
2022/08/04 02:36:30;;;;;;;1.63;1.30;;;;;;;23.44;44.33;96543.09;4978467;28;20137;-77
2022/08/04 02:39:00;;;;;;;2.95;1.40;;;;;;;23.43;44.33;96540.69;4977169;28;20580;-77
2022/08/04 02:41:29;;;;;;;1.00;0.93;;;;;;;23.43;44.05;96536.16;4977854;28;20051;-76
2022/08/04 02:43:59;;;;;;;2.88;1.30;;;;;;;23.42;43.93;96534.56;4978419;28;20058;-77
2022/08/04 02:46:29;;;;;;;4.28;1.50;;;;;;;23.38;44.52;96538.81;4978302;28;20057;-77
2022/08/04 02:48:57;;;;;;;1.98;1.30;;;;;;;23.39;44.61;96524.44;4978756;28;20126;-77
2022/08/04 02:51:28;;;;;;;1.83;1.30;;;;;;;23.38;44.09;96528.16;4977883;28;20053;-77
2022/08/04 02:53:59;;;;;;;4.63;1.20;;;;;;;23.39;44.65;96523.63;4978153;28;20047;-77
2022/08/04 02:56:29;;;;;;;2.70;1.23;;;;;;;23.39;44.51;96524.44;4978117;28;20424;-77
2022/08/04 02:59:01;;;;;;;0.90;0.90;;;;;;;23.38;44.61;96525.50;4978626;28;20130;-77
2022/08/04 03:01:30;;;;;;;3.80;1.20;;;;;;;23.36;44.14;96524.97;4977998;28;20059;-77
2022/08/04 03:04:13;;;;;;;2.35;1.20;;;;;;;23.35;44.29;96518.06;4978039;28;20078;-77
2022/08/04 03:07:24;;;;;;;1.35;1.17;;;;;;;23.33;44.32;96517.53;4977896;28;20058;-77
2022/08/04 03:10:30;;;;;;;1.70;1.45;;;;;;;23.29;44.46;96523.66;4978345;28;20058;-77
2022/08/04 03:13:25;;;;;;;1.65;1.23;;;;;;;23.26;44.81;96524.94;4978191;28;20055;-77
2022/08/04 03:16:03;;;;;;;4.80;1.30;;;;;;;23.21;44.54;96527.63;4977578;28;20129;-77
2022/08/04 03:18:59;;;;;;;2.25;1.13;;;;;;;23.18;44.95;96525.50;4977679;28;20058;-77
2022/08/04 03:22:08;;;;;;;2.65;1.15;;;;;;;23.14;44.71;96524.41;4977837;28;20105;-77
2022/08/04 03:25:08;;;;;;;2.75;1.35;;;;;;;23.08;45.63;96522.81;4977385;28;20058;-77
2022/08/04 03:28:14;;;;;;;1.42;1.33;;;;;;;23.00;45.51;96524.09;4977259;28;20133;-77
2022/08/04 03:30:58;;;;;;;2.47;1.27;;;;;;;22.93;45.85;96527.00;4977568;28;20138;-77
2022/08/04 03:33:50;;;;;;;1.33;1.20;;;;;;;22.86;45.85;96526.44;4976716;28;20146;-77
2022/08/04 03:36:53;;;;;;;3.00;1.50;;;;;;;22.79;46.01;96523.25;4975512;28;20051;-78
2022/08/04 03:39:31;;;;;;;;;;;;;;;22.75;45.67;96527.47;4943392;28;20058;-78
2022/08/04 03:42:34;;;;;;;1.83;1.33;;;;;;;22.68;45.99;96532.25;4973570;28;20319;-76
2022/08/04 03:45:34;;;;;;;2.92;1.15;;;;;;;22.65;46.59;96530.88;4962362;28;20085;-76
2022/08/04 03:48:39;;;;;;;1.50;1.40;;;;;;;22.65;45.96;96530.09;4970326;28;20133;-78
2022/08/04 03:54:42;;;;;;;2.75;1.40;;;;;;;22.58;46.65;96519.72;4966023;28;20134;-78
2022/08/04 03:57:32;;;;;;;2.15;1.48;;;;;;;22.54;46.44;96523.94;4970225;28;20054;-76
2022/08/04 04:00:07;;;;;;;2.20;1.20;;;;;;;22.50;47.22;96520.19;4969327;28;20046;-76
2022/08/04 04:03:16;;;;;;;3.85;1.60;;;;;;;22.50;47.10;96523.69;4974054;28;20094;-75
2022/08/04 04:06:29;;;;;;;1.95;1.40;;;;;;;22.50;47.13;96521.03;4972608;28;20105;-77
2022/08/04 04:09:13;;;;;;;2.83;1.25;;;;;;;22.50;46.82;96521.03;4970562;28;20119;-79
2022/08/04 04:12:12;;;;;;;3.22;1.20;;;;;;;22.50;46.78;96518.38;4972670;28;20055;-79
2022/08/04 04:14:56;;;;;;;2.00;1.25;;;;;;;22.49;47.20;96519.41;4971293;28;20577;-80
2022/08/04 04:17:51;;;;;;;3.45;1.70;;;;;;;22.50;47.48;96526.34;4989020;28;20102;-79
2022/08/04 04:20:39;;;;;;;3.75;1.50;;;;;;;22.50;46.93;96523.69;4999189;28;20478;-77
2022/08/04 04:23:23;;;;;;;3.38;1.50;;;;;;;22.51;47.04;96519.94;4976216;28;20134;-77
2022/08/04 04:26:06;;;;;;;4.20;1.98;;;;;;;22.54;46.86;96522.09;4957540;28;20130;-78
2022/08/04 04:28:50;;;;;;;;;;;;;;;22.58;46.84;96528.47;4959742;28;20086;-78
2022/08/04 04:31:33;;;;;;;1.85;1.42;;;;;;;22.60;46.65;96522.91;4976245;28;19922;-78
2022/08/04 04:34:12;;;;;;;5.97;1.70;;;;;;;22.62;46.82;96526.91;4976610;28;20078;-78
2022/08/04 04:36:50;;;;;;;1.63;1.40;;;;;;;22.65;46.93;96530.09;4977299;28;20051;-78
2022/08/04 04:39:31;;;;;;;2.38;1.75;;;;;;;22.66;46.52;96526.41;4976940;28;20089;-78
2022/08/04 04:42:14;;;;;;;2.97;1.52;;;;;;;22.69;46.62;96537.28;4977478;28;20420;-78
2022/08/04 04:45:22;;;;;;;2.53;1.83;;;;;;;22.71;46.65;96534.38;4976864;28;20047;-78
2022/08/04 04:48:00;;;;;;;2.63;1.40;;;;;;;22.70;46.54;96533.59;4976543;28;20094;-78
2022/08/04 04:50:47;;;;;;;2.83;1.40;;;;;;;22.71;46.78;96537.03;4976517;28;20078;-78
2022/08/04 04:53:23;;;;;;;3.40;1.40;;;;;;;22.74;46.63;96550.63;4977171;28;20318;-78
2022/08/04 04:55:56;;;;;;;2.78;1.25;;;;;;;22.77;46.72;96546.63;4976230;28;20141;-78
2022/08/04 04:58:25;;;;;;;2.42;1.58;;;;;;;22.78;46.88;96545.56;4976240;28;20055;-78
2022/08/04 05:01:18;;;;;;;4.43;1.73;;;;;;;22.81;46.55;96545.06;4976218;28;20054;-78
2022/08/04 05:04:22;;;;;;;3.90;3.30;;;;;;;22.83;46.55;96542.94;4976617;28;20505;-78
2022/08/04 05:07:06;;;;;;;4.05;2.53;;;;;;;22.84;46.88;96544.53;4976538;28;20423;-78
2022/08/04 05:09:52;;;;;;;3.38;2.28;;;;;;;22.84;47.09;96547.97;4976667;28;20535;-78
2022/08/04 05:12:51;;;;;;;5.78;2.53;;;;;;;22.84;47.08;96549.84;4976160;28;20063;-78
2022/08/04 05:15:43;;;;;;;4.60;2.75;;;;;;;22.82;47.38;96550.09;4976044;28;20047;-78
2022/08/04 05:18:19;;;;;;;2.92;2.63;;;;;;;22.83;47.39;96551.72;4976095;28;20089;-78
2022/08/04 05:20:51;;;;;;;3.05;2.38;;;;;;;22.84;47.36;96565.81;4975559;28;20113;-78
2022/08/04 05:23:24;;;;;;;2.55;2.20;;;;;;;22.87;47.37;96556.50;4976343;28;20125;-78
2022/08/04 05:25:57;;;;;;;2.45;2.03;;;;;;;22.91;47.40;96550.38;4980725;28;20107;-78
2022/08/04 05:28:32;;;;;;;3.70;2.25;;;;;;;22.94;47.18;96563.19;4979292;28;20171;-79
2022/08/04 05:31:05;;;;;;;4.03;2.70;;;;;;;22.96;47.69;96562.94;4976696;28;20109;-78
2022/08/04 05:33:34;;;;;;;;;;;;;;;23.00;46.89;96564.00;4976890;28;20086;-78
2022/08/04 05:36:07;;;;;;;5.63;2.80;;;;;;;22.99;47.72;96562.41;4975653;28;20384;-78
2022/08/04 05:38:58;;;;;;;5.35;3.65;;;;;;;23.01;47.34;96565.63;4975959;28;20496;-78
2022/08/04 05:41:27;;;;;;;4.63;3.10;;;;;;;23.02;47.65;96562.72;4975885;28;20089;-78
2022/08/04 05:44:11;;;;;;;4.25;3.00;;;;;;;23.05;47.55;96561.38;4975806;28;20517;-77
2022/08/04 05:46:40;;;;;;;3.67;2.53;;;;;;;23.09;47.74;96564.31;4975730;28;20051;-77
2022/08/04 05:49:10;;;;;;;2.30;1.92;;;;;;;23.14;47.30;96567.00;4975823;28;20436;-78
2022/08/04 05:51:49;;;;;;;3.92;1.58;;;;;;;23.19;47.02;96567.00;4975322;28;20129;-78
2022/08/04 05:54:20;;;;;;;3.05;1.88;;;;;;;23.25;47.20;96565.94;4975375;28;20061;-78
2022/08/04 05:56:49;;;;;;;3.78;2.10;;;;;;;23.30;46.84;96557.97;4975363;28;20089;-78
2022/08/04 05:59:19;;;;;;;3.83;1.80;;;;;;;23.37;47.00;96561.16;4975147;28;20141;-78
2022/08/04 06:01:48;;;;;;;2.05;1.85;;;;;;;23.42;47.19;96566.50;4974853;28;20054;-78
2022/08/04 06:04:30;;;;;;;2.75;2.17;;;;;;;23.47;46.69;96568.38;4975070;28;20054;-78
2022/08/04 06:06:58;;;;;;;4.28;2.20;;;;;;;23.53;46.70;96571.84;4975246;28;20109;-78
2022/08/04 06:09:25;;;;;;;4.55;1.95;;;;;;;23.58;46.65;96567.31;4975106;28;20051;-78
2022/08/04 06:11:56;;;;;;;2.53;1.70;;;;;;;23.62;47.03;96571.03;4975060;28;20573;-78
2022/08/04 06:14:35;;;;;;;3.75;1.60;;;;;;;23.69;47.13;96572.66;4975408;28;20057;-79
2022/08/04 06:17:05;;;;;;;;;;;;;;;23.74;46.69;96573.44;4975689;28;20505;-78
2022/08/04 06:19:55;;;;;;;2.97;1.63;;;;;;;23.80;46.74;96571.59;4975929;28;20300;-78
2022/08/04 06:22:46;;;;;;;4.93;2.05;;;;;;;23.87;46.62;96571.34;4975390;28;20146;-79
2022/08/04 06:25:19;;;;;;;2.03;1.52;;;;;;;23.96;47.09;96564.41;4974641;28;20051;-78
2022/08/04 06:27:49;;;;;;;3.60;1.70;;;;;;;24.02;46.73;96574.78;4974608;28;20062;-78
2022/08/04 06:30:18;;;;;;;2.17;1.98;;;;;;;24.09;47.26;96573.72;4974507;28;20057;-78
2022/08/04 06:32:54;;;;;;;3.50;1.70;;;;;;;24.17;46.97;96565.19;4974568;28;20106;-78
2022/08/04 06:35:33;;;;;;;2.30;1.73;;;;;;;24.23;46.98;96564.91;4974230;28;20046;-78
2022/08/04 06:38:02;;;;;;;3.88;1.70;;;;;;;24.31;46.74;96565.41;4973997;28;20624;-78
2022/08/04 06:40:31;;;;;;;1.80;1.70;;;;;;;24.38;46.62;96565.91;4973404;28;20086;-77
2022/08/04 06:43:02;;;;;;;1.92;1.70;;;;;;;24.46;46.85;96568.03;4974699;28;20093;-77
2022/08/04 06:45:33;;;;;;;4.50;1.80;;;;;;;24.53;46.64;96565.91;4975121;28;20057;-78
2022/08/04 06:48:02;;;;;;;4.55;1.45;;;;;;;24.62;46.31;96566.94;4974399;28;20504;-78
2022/08/04 06:50:31;;;;;;;3.83;1.67;;;;;;;24.70;46.19;96567.44;4973564;28;20133;-78
2022/08/04 06:53:19;;;;;;;3.53;2.15;;;;;;;24.78;46.25;96569.56;4974063;28;20065;-77
2022/08/04 06:55:49;;;;;;;2.03;1.70;;;;;;;24.86;45.79;96572.47;4973780;28;20102;-78
2022/08/04 06:58:18;;;;;;;3.53;1.35;;;;;;;24.95;45.75;96575.34;4988259;28;20500;-79
2022/08/04 07:00:47;;;;;;;4.68;1.70;;;;;;;25.04;45.57;96572.91;4994426;28;20046;-78
2022/08/04 07:03:17;;;;;;;3.53;1.77;;;;;;;25.12;45.58;96577.63;4976980;28;20126;-78
2022/08/04 07:05:48;;;;;;;3.05;1.30;;;;;;;25.21;45.19;96580.56;4975535;28;20498;-78
2022/08/04 07:08:16;;;;;;;2.72;1.70;;;;;;;25.29;45.08;96577.31;4982693;28;20047;-79
2022/08/04 07:10:44;;;;;;;4.90;1.70;;;;;;;25.38;44.79;96572.19;4986630;28;20110;-79
2022/08/04 07:13:12;;;;;;;5.63;1.73;;;;;;;25.47;44.93;96576.69;4983809;28;20046;-78
2022/08/04 07:15:44;;;;;;;4.55;1.63;;;;;;;25.57;44.64;96572.34;4973237;28;20145;-78
2022/08/04 07:18:12;;;;;;;4.55;2.08;;;;;;;25.65;44.37;96567.19;4973852;28;20054;-78
2022/08/04 07:20:41;;;;;;;1.63;1.52;;;;;;;25.75;44.26;96566.31;4973311;28;20283;-78
2022/08/04 07:23:12;;;;;;;3.60;1.85;;;;;;;25.84;44.09;96569.97;4973689;28;20125;-77
2022/08/04 07:25:40;;;;;;;5.35;1.83;;;;;;;25.95;43.90;96569.91;4974656;28;20050;-78
2022/08/04 07:28:30;;;;;;;4.65;1.85;;;;;;;26.05;43.66;96559.91;4973643;28;20054;-78
2022/08/04 07:30:58;;;;;;;3.05;1.60;;;;;;;26.17;43.22;96564.09;4973458;28;20137;-78
2022/08/04 07:33:26;;;;;;;2.97;1.77;;;;;;;26.25;43.25;96555.44;4973699;28;20146;-77
2022/08/04 07:35:55;;;;;;;19.55;2.95;;;;;;;26.36;43.03;96564.16;4973532;28;20089;-78
2022/08/04 07:38:40;;;;;;;8.60;1.75;;;;;;;26.47;42.90;96565.66;4973185;28;20054;-77
2022/08/04 07:41:21;;;;;;;4.38;2.10;;;;;;;26.58;42.20;96563.69;4973135;28;20067;-77
2022/08/04 07:44:06;;;;;;;7.15;2.20;;;;;;;26.71;42.03;96565.66;4974238;28;20050;-77
2022/08/04 07:46:34;;;;;;;1.45;1.25;;;;;;;26.84;41.72;96564.16;4973512;28;20109;-77
2022/08/04 07:49:02;;;;;;;2.00;1.60;;;;;;;26.95;41.90;96564.84;4973633;28;20146;-77
2022/08/04 07:51:30;;;;;;;2.92;1.95;;;;;;;27.07;41.51;96566.00;4973791;28;20133;-77
2022/08/04 07:54:02;;;;;;;7.10;1.95;;;;;;;27.18;40.94;96572.03;4977354;28;20081;-77
2022/08/04 07:56:30;;;;;;;5.95;1.38;;;;;;;27.29;41.06;96568.16;4976882;28;20141;-77
2022/08/04 07:58:59;;;;;;;1.55;1.35;;;;;;;27.42;39.75;96563.94;4976998;28;20089;-77
2022/08/04 08:01:27;;;;;;;1.30;1.10;;;;;;;27.55;39.29;96557.06;4976275;28;20050;-77
2022/08/04 08:03:57;;;;;;;3.10;1.50;;;;;;;27.69;38.78;96557.09;4976554;28;20501;-77
2022/08/04 08:06:28;;;;;;;1.42;1.33;;;;;;;27.81;38.25;96554.72;4976993;28;20049;-78
2022/08/04 08:09:07;;;;;;;2.90;2.17;;;;;;;27.96;38.04;96560.97;4976820;28;20055;-77
2022/08/04 08:11:40;;;;;;;1.70;1.20;;;;;;;28.08;37.69;96551.38;4976196;28;20074;-80
2022/08/04 08:14:29;;;;;;;2.15;1.40;;;;;;;28.23;37.48;96549.47;4976692;28;20193;-77
2022/08/04 08:16:58;;;;;;;4.60;1.52;;;;;;;28.36;37.54;96546.03;4976575;28;20047;-77
2022/08/04 08:19:25;;;;;;;2.88;1.40;;;;;;;28.47;37.39;96547.41;4976370;28;20424;-78
2022/08/04 08:21:53;;;;;;;2.58;1.55;;;;;;;28.58;36.77;96549.91;4975987;28;20105;-77
2022/08/04 08:24:28;;;;;;;1.55;1.05;;;;;;;28.69;36.39;96552.13;4975977;28;20062;-78
2022/08/04 08:26:56;;;;;;;2.60;1.30;;;;;;;28.80;35.89;96541.97;4976192;28;20086;-77
2022/08/04 08:29:24;;;;;;;2.25;1.23;;;;;;;28.89;35.47;96547.41;4976219;28;20584;-78
2022/08/04 08:31:52;;;;;;;1.52;1.00;;;;;;;29.00;35.03;96543.41;4975991;28;20472;-77
2022/08/04 08:34:25;;;;;;;1.27;1.17;;;;;;;29.11;34.89;96547.50;4979073;28;20062;-79
2022/08/04 08:37:01;;;;;;;1.02;1.00;;;;;;;29.23;34.60;96546.16;4987083;28;20074;-79
2022/08/04 08:39:35;;;;;;;1.27;1.17;;;;;;;29.35;34.05;96546.44;4985321;28;20521;-78
2022/08/04 08:42:28;;;;;;;4.22;1.30;;;;;;;29.46;33.72;96542.41;4977089;28;20050;-80
2022/08/04 08:45:14;;;;;;;;;;;;;;;29.56;34.33;96546.72;4974708;28;20047;-78
2022/08/04 08:48:02;;;;;;;1.75;1.25;;;;;;;29.69;33.07;96545.09;4976322;28;19922;-77
2022/08/04 08:51:11;;;;;;;5.13;0.90;;;;;;;29.80;32.34;96541.06;4975949;28;20074;-77
2022/08/04 08:53:52;;;;;;;4.57;1.17;;;;;;;29.91;32.08;96539.72;4976048;28;20050;-77
2022/08/04 08:56:32;;;;;;;6.30;1.00;;;;;;;30.03;32.26;96541.06;4975504;28;20057;-78
2022/08/04 08:59:36;;;;;;;4.80;1.33;;;;;;;30.15;32.38;96535.88;4975826;28;20093;-79
2022/08/04 09:02:28;;;;;;;2.97;0.82;;;;;;;30.26;30.93;96542.56;4965455;28;20078;-80
2022/08/04 09:05:21;;;;;;;2.13;1.10;;;;;;;30.35;31.43;96535.38;4975539;28;20051;-79
2022/08/04 09:08:07;;;;;;;3.90;0.93;;;;;;;30.44;30.95;96538.09;4975522;28;20047;-79
2022/08/04 09:10:43;;;;;;;2.80;1.00;;;;;;;30.54;30.42;96542.38;4975336;28;20081;-79
2022/08/04 09:13:20;;;;;;;0.75;0.65;;;;;;;30.66;30.29;96550.66;4975326;28;20150;-78
2022/08/04 09:15:56;;;;;;;3.00;1.25;;;;;;;30.75;29.92;96554.16;4975430;28;20082;-78
2022/08/04 09:18:28;;;;;;;1.00;0.77;;;;;;;30.86;28.91;96543.13;4975308;28;20057;-78
2022/08/04 09:21:02;;;;;;;5.28;1.00;;;;;;;30.96;29.33;96548.19;4975352;28;20485;-78
2022/08/04 09:23:41;;;;;;;1.50;0.90;;;;;;;31.07;29.03;96549.50;4975428;28;20429;-78
2022/08/04 09:26:12;;;;;;;1.35;0.90;;;;;;;31.16;28.31;96547.59;4975268;28;20592;-78
2022/08/04 09:28:51;;;;;;;2.47;0.90;;;;;;;31.26;28.64;96554.56;4975272;28;20130;-78
2022/08/04 09:31:24;;;;;;;6.57;1.02;;;;;;;31.37;28.03;96552.34;4974920;28;20055;-78
2022/08/04 09:34:01;;;;;;;1.00;0.70;;;;;;;31.43;28.37;96548.44;4975274;28;20583;-78
2022/08/04 09:36:35;;;;;;;1.20;0.82;;;;;;;31.53;27.30;96553.50;4975200;28;20065;-78
2022/08/04 09:39:09;;;;;;;1.08;0.63;;;;;;;31.65;27.23;96546.66;4984951;28;20086;-78
2022/08/04 09:41:46;;;;;;;2.33;1.02;;;;;;;31.73;27.49;96546.66;4989321;28;20054;-79
2022/08/04 09:44:31;;;;;;;4.05;1.10;;;;;;;31.83;27.22;96549.00;4976424;28;20524;-78
2022/08/04 09:47:24;;;;;;;10.90;1.27;;;;;;;31.90;27.88;96545.81;4975520;28;20053;-78
2022/08/04 09:50:18;;;;;;;2.05;0.85;;;;;;;32.02;26.76;96540.56;4974951;28;20050;-78
2022/08/04 09:52:52;;;;;;;1.00;0.73;;;;;;;32.09;27.49;96536.59;4974806;28;20130;-78
2022/08/04 09:55:40;;;;;;;2.50;0.60;;;;;;;32.18;27.59;96540.03;4974654;28;20074;-78
2022/08/04 09:58:28;;;;;;;0.77;0.70;;;;;;;32.28;27.35;96547.78;4974670;28;20047;-78
2022/08/04 10:01:01;;;;;;;1.98;1.00;;;;;;;32.35;27.02;96541.91;4974564;28;20276;-77
2022/08/04 10:03:33;;;;;;;0.73;0.70;;;;;;;32.43;26.74;96544.56;4974750;28;20101;-77
2022/08/04 10:06:12;;;;;;;2.50;1.30;;;;;;;32.50;26.96;96537.84;4974375;28;20055;-77
2022/08/04 10:08:59;;;;;;;3.88;1.30;;;;;;;32.57;27.14;96532.75;4974624;28;20129;-79
2022/08/04 10:11:39;;;;;;;1.10;0.80;;;;;;;32.65;26.48;96529.22;4974009;28;20047;-77
2022/08/04 10:14:37;;;;;;;2.53;0.93;;;;;;;32.74;26.45;96526.47;4973577;28;20117;-78
2022/08/04 10:17:20;;;;;;;3.22;0.80;;;;;;;32.81;26.55;96521.34;4974377;28;20557;-78
2022/08/04 10:19:56;;;;;;;2.35;1.33;;;;;;;32.87;26.24;96524.66;4974561;28;20062;-78
2022/08/04 10:22:31;;;;;;;2.83;0.70;;;;;;;32.92;25.87;96521.75;4973999;28;20532;-78
2022/08/04 10:25:30;;;;;;;2.05;0.77;;;;;;;32.96;25.50;96517.28;4974763;28;20248;-78
2022/08/04 10:28:23;;;;;;;2.78;1.00;;;;;;;33.00;25.97;96513.59;4974087;28;20050;-78
2022/08/04 10:30:55;;;;;;;1.58;1.02;;;;;;;33.07;26.02;96510.38;4973878;28;20172;-78
2022/08/04 10:33:28;;;;;;;3.83;1.13;;;;;;;33.14;25.56;96510.63;4973948;28;20109;-78
2022/08/04 10:36:01;;;;;;;1.70;1.15;;;;;;;33.19;25.14;96510.47;4974385;28;20394;-77
2022/08/04 10:38:31;;;;;;;1.00;1.00;;;;;;;33.24;25.61;96506.75;4973787;28;20141;-78
2022/08/04 10:41:06;;;;;;;0.93;0.90;;;;;;;33.29;25.32;96514.66;4973622;28;20509;-79
2022/08/04 10:43:44;;;;;;;0.70;0.70;;;;;;;33.34;25.59;96498.22;4974458;28;20086;-78
2022/08/04 10:46:16;;;;;;;1.33;1.10;;;;;;;33.38;25.41;96501.84;4973644;28;20082;-77
2022/08/04 10:48:51;;;;;;;2.78;1.10;;;;;;;33.41;26.04;96494.97;4974169;28;20477;-77
2022/08/04 10:51:25;;;;;;;1.00;1.00;;;;;;;33.48;26.29;96495.25;4973582;28;20137;-79
2022/08/04 10:54:05;;;;;;;1.35;0.98;;;;;;;33.52;25.96;96490.75;4973968;28;20078;-79
2022/08/04 10:56:40;;;;;;;2.03;0.85;;;;;;;33.58;25.85;96494.03;4973903;28;20081;-79
2022/08/04 10:59:13;;;;;;;0.90;0.80;;;;;;;33.62;26.11;96487.63;4974635;28;20098;-79
2022/08/04 11:01:44;;;;;;;1.08;1.08;;;;;;;33.68;25.82;96492.84;4973287;28;20129;-80
2022/08/04 11:04:44;;;;;;;2.90;1.27;;;;;;;33.72;25.72;96493.75;4973762;28;20482;-79
2022/08/04 11:07:12;;;;;;;0.93;0.93;;;;;;;33.74;25.25;96496.91;4974227;28;20061;-78
2022/08/04 11:09:42;;;;;;;1.27;0.93;;;;;;;33.76;25.51;96494.66;4973815;28;20051;-77
2022/08/04 11:12:16;;;;;;;1.58;1.40;;;;;;;33.77;25.21;96488.91;4973454;28;20565;-79
2022/08/04 11:14:49;;;;;;;1.10;1.00;;;;;;;33.82;25.37;96490.63;4973531;28;20109;-78
2022/08/04 11:17:22;;;;;;;1.80;0.90;;;;;;;33.85;25.25;96492.66;4973938;28;20078;-78
2022/08/04 11:20:01;;;;;;;3.13;1.02;;;;;;;33.90;25.12;96488.97;4973928;28;20494;-77
2022/08/04 11:22:55;;;;;;;1.17;0.90;;;;;;;33.91;24.50;96485.91;4974003;28;20054;-78
2022/08/04 11:25:26;;;;;;;1.92;1.02;;;;;;;33.92;24.57;96484.00;4974216;28;20133;-80
2022/08/04 11:28:00;;;;;;;4.05;1.17;;;;;;;33.93;24.44;96483.66;4980012;28;20090;-78
2022/08/04 11:30:34;;;;;;;3.92;0.80;;;;;;;33.96;25.57;96493.81;4978793;28;20134;-78
2022/08/04 11:33:15;;;;;;;4.68;1.30;;;;;;;34.01;25.00;96485.47;4978557;28;20055;-78
2022/08/04 11:35:52;;;;;;;3.10;1.40;;;;;;;34.05;25.31;96486.38;4977472;28;20547;-77
2022/08/04 11:38:23;;;;;;;1.08;0.90;;;;;;;34.10;24.82;96481.88;4978394;28;20047;-78
2022/08/04 11:41:03;;;;;;;5.35;1.30;;;;;;;34.14;25.15;96477.41;4981505;28;20047;-79
2022/08/04 11:43:41;;;;;;;0.98;0.98;;;;;;;34.16;25.51;96480.56;4981699;28;20458;-78
2022/08/04 11:46:35;;;;;;;1.10;1.10;;;;;;;34.19;24.81;96480.66;4977720;28;20059;-77
2022/08/04 11:49:06;;;;;;;1.52;1.33;;;;;;;34.21;24.80;96483.03;4977451;28;20102;-79
2022/08/04 11:51:36;;;;;;;1.30;1.20;;;;;;;34.21;25.52;96477.63;4977314;28;20120;-80
2022/08/04 11:54:04;;;;;;;1.85;1.40;;;;;;;34.23;24.77;96478.06;4976799;28;20054;-81
2022/08/04 11:56:32;;;;;;;2.35;1.08;;;;;;;34.24;25.21;96476.94;4976823;28;20133;-80
2022/08/04 11:59:07;;;;;;;2.75;0.90;;;;;;;34.26;24.77;96480.91;4977031;28;20134;-80
2022/08/04 12:01:47;;;;;;;2.40;1.35;;;;;;;34.30;24.97;96474.78;4976707;28;20138;-80
2022/08/04 12:04:22;;;;;;;1.95;1.40;;;;;;;34.33;24.87;96480.34;4976840;28;20050;-79
2022/08/04 12:06:56;;;;;;;4.43;1.40;;;;;;;34.37;25.64;96459.53;4976574;28;20090;-79
2022/08/04 12:09:48;;;;;;;3.53;1.05;;;;;;;34.39;24.62;96470.81;4976612;28;20055;-79
2022/08/04 12:12:26;;;;;;;0.90;0.90;;;;;;;34.43;25.16;96473.66;4976167;28;20051;-79
2022/08/04 12:15:03;;;;;;;1.65;1.48;;;;;;;34.46;24.91;96468.38;4976456;28;20058;-80
2022/08/04 12:17:37;;;;;;;1.42;1.33;;;;;;;34.53;24.36;96472.41;4976761;28;20051;-81
2022/08/04 12:20:23;;;;;;;1.02;0.95;;;;;;;34.57;24.57;96474.09;4985534;28;20043;-81
2022/08/04 12:23:15;;;;;;;1.50;1.35;;;;;;;34.64;24.76;96465.44;4978903;28;20065;-80
2022/08/04 12:25:47;;;;;;;1.42;1.33;;;;;;;34.71;24.70;96472.97;4976085;28;20046;-79
2022/08/04 12:28:22;;;;;;;1.23;1.13;;;;;;;34.74;24.28;96467.66;4976347;28;20114;-80
2022/08/04 12:30:55;;;;;;;1.30;0.75;;;;;;;34.77;24.72;96464.28;4976182;28;20050;-79